Sugar Creek, Missouri
Current Conditions -  °F | °C
As of 5:54 AM on Monday 20 Oct 2014 (Local Time) from KMKC Reporting Station
Clear Clear  
Wind Chill: 53°   Ceiling: Unl
Heat Index: 53°   Visibility: 10mi
Dew Point: 50°   Wind: 3mph
Humidity: 89%   Direction: 210°SSW
Pressure: 29.99"   Gusts: NA
Location:  39.11°N, 94.4625°W
Report Text: KMKC 201054Z 21003KT 10SM CLR 12/10 A2999 RMK AO2 SLP152 T01170100
Loading
Personal Weather Stations






























Interactive Weather Map
Tropical Storm Tracking
New forecast layout! Learn more

10-Day Weather Forecast

Advertisements
Track Severe Weather on mobile